Terminal Aerodrome Forecast
Issued by NWS Twin Cities, MN

Home | Current Version | Previous Version | Graphics & Text | Print | Product List | Glossary On
Versions: 1 2 3 4 5 6 7 8 9 10 11 12 13 14 15 16 17 18 19 20 21 22 23 24 25 26 27
000
FTUS43 KMPX 282330
TAFMSP
TAF
KMSP 282330Z 0100/0206 19013G18KT P6SM SCT050 BKN100
      TEMPO 0100/0102 BKN030
     FM010200 18009KT P6SM BKN030 OVC050
     FM011000 22008KT P6SM SCT030 BKN100
     FM011400 26009KT P6SM SCT150
     FM011800 27011G16KT P6SM SCT150
     FM020000 28009KT P6SM FEW150=

USA.gov is the U.S. government's official web portal to all federal, state and local government web resources and services.